createdAt,value
2018-03-28T00:02:11.713Z,12.95
2018-03-28T00:04:38.278Z,12.73
2018-03-28T00:07:04.830Z,12.85
2018-03-28T00:09:31.802Z,11.90
2018-03-28T00:11:58.372Z,13.88
2018-03-28T00:14:24.903Z,12.85
2018-03-28T00:16:51.524Z,14.05
2018-03-28T00:19:18.474Z,12.65
2018-03-28T00:21:45.384Z,12.37
2018-03-28T00:24:11.975Z,12.70
2018-03-28T00:26:39.050Z,12.27
2018-03-28T00:29:05.949Z,14.43
2018-03-28T00:31:32.519Z,13.20
2018-03-28T00:33:59.097Z,13.15
2018-03-28T00:36:25.646Z,12.10
2018-03-28T00:38:52.582Z,12.73
2018-03-28T00:41:19.150Z,15.32
2018-03-28T00:43:46.062Z,17.40
2018-03-28T00:46:12.626Z,14.23
2018-03-28T00:48:39.200Z,12.13
2018-03-28T00:51:18.351Z,13.65
2018-03-28T00:53:44.917Z,12.10
2018-03-28T00:56:11.449Z,14.65
2018-03-28T00:58:38.050Z,16.58
2018-03-28T01:01:04.638Z,16.92
2018-03-28T01:03:31.538Z,16.95
2018-03-28T01:05:58.105Z,17.23
2018-03-28T01:08:24.667Z,15.98
2018-03-28T01:10:51.202Z,13.05
2018-03-28T01:13:18.114Z,14.70
2018-03-28T01:15:44.679Z,12.70
2018-03-28T01:18:11.215Z,12.50
2018-03-28T01:20:37.831Z,13.23
2018-03-28T01:23:04.765Z,13.57
2018-03-28T01:25:31.306Z,13.18
2018-03-28T01:27:57.935Z,12.90
2018-03-28T01:30:24.508Z,12.90
2018-03-28T01:32:51.046Z,13.85
2018-03-28T01:35:17.661Z,13.32
2018-03-28T01:37:44.229Z,13.10
2018-03-28T01:40:10.757Z,12.32
2018-03-28T01:42:37.329Z,12.32
2018-03-28T01:45:03.926Z,12.45
2018-03-28T01:47:30.473Z,11.82
2018-03-28T01:49:57.041Z,12.57
2018-03-28T01:52:23.618Z,11.15
2018-03-28T01:54:50.165Z,10.50
2018-03-28T01:57:16.730Z,10.65
2018-03-28T01:59:43.293Z,10.63
2018-03-28T02:02:09.849Z,11.00
2018-03-28T02:04:36.418Z,12.48
2018-03-28T02:07:03.069Z,11.52
2018-03-28T02:09:29.614Z,11.15
2018-03-28T02:11:56.191Z,9.75
2018-03-28T02:14:22.768Z,9.20
2018-03-28T02:16:49.699Z,11.23
2018-03-28T02:19:16.339Z,10.40
2018-03-28T02:21:42.873Z,9.48
2018-03-28T02:24:09.423Z,9.70
2018-03-28T02:26:36.004Z,10.80
2018-03-28T02:29:02.630Z,10.93
2018-03-28T02:31:29.182Z,9.52
2018-03-28T02:33:55.757Z,9.15
2018-03-28T02:36:22.718Z,9.20
2018-03-28T02:38:49.627Z,9.20
2018-03-28T02:41:16.218Z,8.77
2018-03-28T02:43:50.103Z,8.85
2018-03-28T02:46:16.677Z,8.93
2018-03-28T02:48:43.289Z,8.77
2018-03-28T02:51:09.830Z,9.70
2018-03-28T02:53:36.443Z,8.27
2018-03-28T02:56:03.396Z,8.23
2018-03-28T02:58:29.955Z,9.27
2018-03-28T03:00:56.534Z,9.65
2018-03-28T03:03:23.129Z,9.32
2018-03-28T03:05:49.726Z,9.27
2018-03-28T03:08:16.306Z,8.68
2018-03-28T03:10:42.873Z,8.93
2018-03-28T03:13:09.776Z,8.98
2018-03-28T03:15:36.345Z,9.52
2018-03-28T03:18:02.962Z,8.90
2018-03-28T03:20:29.501Z,8.50
2018-03-28T03:22:56.057Z,8.93
2018-03-28T03:25:22.621Z,7.97
2018-03-28T03:27:49.184Z,8.93
2018-03-28T03:30:15.766Z,8.52
2018-03-28T03:32:42.709Z,8.40
2018-03-28T03:35:09.240Z,8.48
2018-03-28T03:37:35.818Z,7.72
2018-03-28T03:40:02.785Z,8.35
2018-03-28T03:42:29.734Z,7.75
2018-03-28T03:44:56.666Z,8.98
2018-03-28T03:47:23.217Z,8.27
2018-03-28T03:49:49.786Z,8.80
2018-03-28T03:52:16.734Z,8.80
2018-03-28T03:54:43.642Z,9.50
2018-03-28T03:57:10.213Z,8.25
2018-03-28T03:59:36.834Z,9.25
2018-03-28T04:02:03.370Z,7.90
2018-03-28T04:04:29.979Z,7.45
2018-03-28T04:06:56.917Z,7.57
2018-03-28T04:09:23.466Z,7.80
2018-03-28T04:11:50.040Z,6.32
2018-03-28T04:14:17.002Z,6.70
2018-03-28T04:16:43.922Z,6.47
2018-03-28T04:19:10.533Z,6.05
2018-03-28T04:21:37.102Z,5.35
2018-03-28T04:24:03.657Z,5.43
2018-03-28T04:26:30.250Z,5.20
2018-03-28T04:28:57.217Z,4.30
2018-03-28T04:31:23.785Z,4.55
2018-03-28T04:33:50.354Z,4.53
2018-03-28T04:36:16.933Z,5.45
2018-03-28T04:38:43.841Z,5.47
2018-03-28T04:41:10.434Z,5.05
2018-03-28T04:43:37.025Z,5.47
2018-03-28T04:46:03.586Z,5.25
2018-03-28T04:48:30.161Z,4.70
2018-03-28T04:50:56.757Z,4.80
2018-03-28T04:53:23.281Z,5.80
2018-03-28T04:55:50.232Z,5.60
2018-03-28T04:58:17.182Z,5.47
2018-03-28T05:00:43.751Z,4.80
2018-03-28T05:03:10.321Z,5.80
2018-03-28T05:05:36.922Z,5.78
2018-03-28T05:08:03.469Z,5.28
2018-03-28T05:10:30.051Z,4.78
2018-03-28T05:12:56.629Z,4.43
2018-03-28T05:15:23.162Z,4.75
2018-03-28T05:17:49.761Z,4.97
2018-03-28T05:20:16.331Z,3.70
2018-03-28T05:22:43.238Z,3.45
2018-03-28T05:25:09.850Z,2.92
2018-03-28T05:27:36.414Z,3.10
2018-03-28T05:30:03.077Z,2.97
2018-03-28T05:32:29.666Z,2.62
2018-03-28T05:34:56.609Z,2.67
2018-03-28T05:37:23.156Z,2.65
2018-03-28T05:39:49.733Z,2.40
2018-03-28T05:42:16.665Z,2.30
2018-03-28T05:44:43.250Z,1.83
2018-03-28T05:47:09.817Z,2.10
2018-03-28T05:49:36.422Z,1.80
2018-03-28T05:52:03.330Z,1.65
2018-03-28T05:54:29.896Z,2.00
2018-03-28T05:56:56.461Z,2.28
2018-03-28T05:59:23.000Z,1.92
2018-03-28T06:01:49.581Z,1.50
2018-03-28T06:04:16.525Z,1.50
2018-03-28T06:06:43.473Z,1.27
2018-03-28T06:09:10.427Z,1.48
2018-03-28T06:11:37.389Z,1.50
2018-03-28T06:14:04.317Z,1.37
2018-03-28T06:16:30.894Z,2.03
2018-03-28T06:18:57.842Z,1.85
2018-03-28T06:21:24.755Z,1.80
2018-03-28T06:23:51.342Z,2.45
2018-03-28T06:26:17.933Z,2.58
2018-03-28T06:28:44.502Z,2.58
2018-03-28T06:31:11.079Z,2.87
2018-03-28T06:33:37.658Z,2.75
2018-03-28T06:36:04.225Z,2.25
2018-03-28T06:38:30.812Z,2.60
2018-03-28T06:40:58.301Z,2.70
2018-03-28T06:43:24.840Z,2.92
2018-03-28T06:45:51.814Z,3.08
2018-03-28T06:48:18.762Z,3.28
2018-03-28T06:50:45.674Z,3.15
2018-03-28T06:53:12.274Z,4.25
2018-03-28T06:55:39.217Z,3.22
2018-03-28T06:58:05.754Z,3.53
2018-03-28T07:00:32.714Z,3.45
2018-03-28T07:02:59.320Z,3.87
2018-03-28T07:05:25.905Z,3.78
2018-03-28T07:07:52.870Z,4.15
2018-03-28T07:10:19.434Z,4.15
2018-03-28T07:12:46.406Z,3.80
2018-03-28T07:15:12.985Z,4.62
2018-03-28T07:17:39.548Z,4.82
2018-03-28T07:20:06.098Z,4.30
2018-03-28T07:22:32.678Z,4.62
2018-03-28T07:24:59.624Z,4.47
2018-03-28T07:27:26.218Z,3.92
2018-03-28T07:29:52.859Z,3.92
2018-03-28T07:32:19.426Z,4.20
2018-03-28T07:34:45.962Z,4.80
2018-03-28T07:37:12.546Z,4.47
2018-03-28T07:39:39.112Z,3.50
2018-03-28T07:42:05.841Z,3.30
2018-03-28T07:44:32.414Z,3.87
2018-03-28T07:46:58.998Z,4.12
2018-03-28T07:49:25.549Z,4.20
2018-03-28T07:51:52.153Z,5.10
2018-03-28T07:54:19.098Z,4.00
2018-03-28T07:56:45.638Z,4.90
2018-03-28T07:59:12.223Z,4.10
2018-03-28T08:01:38.834Z,3.83
2018-03-28T08:04:05.389Z,3.78
2018-03-28T08:06:31.977Z,4.05
2018-03-28T08:08:58.566Z,3.58
2018-03-28T08:11:25.101Z,3.90
2018-03-28T08:13:51.681Z,3.28
2018-03-28T08:16:18.251Z,3.28
2018-03-28T08:18:45.187Z,3.60
2018-03-28T08:21:11.761Z,3.75
2018-03-28T08:23:38.349Z,3.85
2018-03-28T08:26:04.904Z,3.10
2018-03-28T08:28:31.509Z,3.50
2018-03-28T08:30:58.482Z,3.30
2018-03-28T08:33:25.024Z,3.75
2018-03-28T08:35:51.610Z,3.85
2018-03-28T08:38:18.195Z,2.60
2018-03-28T08:40:45.122Z,2.90
2018-03-28T08:43:11.721Z,3.03
2018-03-28T08:45:38.294Z,2.58
2018-03-28T08:48:04.842Z,3.15
2018-03-28T08:50:31.421Z,2.90
2018-03-28T08:52:57.998Z,2.75
2018-03-28T08:55:24.538Z,2.70
2018-03-28T08:57:51.126Z,2.70
2018-03-28T09:00:17.714Z,2.90
2018-03-28T09:02:44.249Z,2.42
2018-03-28T09:05:10.857Z,2.65
2018-03-28T09:07:37.449Z,2.83
2018-03-28T09:10:04.017Z,2.35
2018-03-28T09:12:30.965Z,2.22
2018-03-28T09:14:57.927Z,2.10
2018-03-28T09:17:24.842Z,2.00
2018-03-28T09:19:51.422Z,2.00
2018-03-28T09:22:18.034Z,2.12
2018-03-28T09:24:44.586Z,2.17
2018-03-28T09:27:11.170Z,2.20
2018-03-28T09:29:38.178Z,2.08
2018-03-28T09:32:04.750Z,2.20
2018-03-28T09:34:31.326Z,1.98
2018-03-28T09:36:58.310Z,1.85
2018-03-28T09:39:24.850Z,1.90
2018-03-28T09:41:51.429Z,1.90
2018-03-28T09:44:18.017Z,2.17
2018-03-28T09:46:44.937Z,2.72
2018-03-28T09:49:11.504Z,1.90
2018-03-28T09:51:38.093Z,1.55
2018-03-28T09:54:04.642Z,1.80
2018-03-28T09:56:31.229Z,1.83
2018-03-28T09:58:57.817Z,1.50
2018-03-28T10:01:29.662Z,1.70
2018-03-28T10:04:02.224Z,1.95
2018-03-28T10:06:28.813Z,1.30
2018-03-28T10:08:55.371Z,1.65
2018-03-28T10:11:22.323Z,1.30
2018-03-28T10:13:49.274Z,1.60
2018-03-28T10:16:15.838Z,1.75
2018-03-28T10:18:42.434Z,1.70
2018-03-28T10:21:09.014Z,1.60
2018-03-28T10:23:35.946Z,2.60
2018-03-28T10:26:02.537Z,1.58
2018-03-28T10:28:29.530Z,1.83
2018-03-28T10:30:56.098Z,1.85
2018-03-28T10:33:22.678Z,1.48
2018-03-28T10:35:49.735Z,1.55
2018-03-28T10:38:16.339Z,1.90
2018-03-28T10:40:42.964Z,2.03
2018-03-28T10:43:09.542Z,2.00
2018-03-28T10:45:36.212Z,2.20
2018-03-28T10:48:02.826Z,2.33
2018-03-28T10:50:29.420Z,1.70
2018-03-28T10:52:55.969Z,1.73
2018-03-28T10:55:22.951Z,2.15
2018-03-28T10:57:49.906Z,2.72
2018-03-28T11:00:16.826Z,1.90
2018-03-28T11:02:43.414Z,2.25
2018-03-28T11:05:09.998Z,2.30
2018-03-28T11:07:36.551Z,2.25
2018-03-28T11:10:03.206Z,2.05
2018-03-28T11:12:29.789Z,2.17
2018-03-28T11:14:56.334Z,1.95
2018-03-28T11:17:23.311Z,2.85
2018-03-28T11:19:49.895Z,2.42
2018-03-28T11:22:16.449Z,2.20
2018-03-28T11:24:43.043Z,2.12
2018-03-28T11:27:10.009Z,1.87
2018-03-28T11:29:36.599Z,1.40
2018-03-28T11:32:03.204Z,2.00
2018-03-28T11:34:30.168Z,1.48
2018-03-28T11:36:56.801Z,1.40
2018-03-28T11:39:23.765Z,1.70
2018-03-28T11:41:50.699Z,1.70
2018-03-28T11:44:17.246Z,1.30
2018-03-28T11:46:43.831Z,1.60
2018-03-28T11:49:10.423Z,1.70
2018-03-28T11:51:36.989Z,1.33
2018-03-28T11:54:03.565Z,1.50
2018-03-28T11:56:30.201Z,1.60
2018-03-28T11:58:56.764Z,1.42
2018-03-28T12:01:23.349Z,1.55
2018-03-28T12:03:49.945Z,2.30
2018-03-28T12:06:16.853Z,1.70
2018-03-28T12:08:43.853Z,2.57
2018-03-28T12:11:10.814Z,1.60
2018-03-28T12:13:37.719Z,1.73
2018-03-28T12:16:04.347Z,1.73
2018-03-28T12:18:30.942Z,1.48
2018-03-28T12:20:57.493Z,1.50
2018-03-28T12:23:26.111Z,1.40
2018-03-28T12:25:52.701Z,1.42
2018-03-28T12:28:26.622Z,1.50
2018-03-28T12:30:53.289Z,1.67
2018-03-28T12:33:19.856Z,1.40
2018-03-28T12:35:46.500Z,1.42
2018-03-28T12:38:13.089Z,1.80
2018-03-28T12:40:39.666Z,1.42
2018-03-28T12:43:06.250Z,1.60
2018-03-28T12:45:32.822Z,1.20
2018-03-28T12:47:59.750Z,1.23
2018-03-28T12:50:26.356Z,1.20
2018-03-28T12:52:52.952Z,1.23
2018-03-28T12:55:20.585Z,0.90
2018-03-28T12:57:47.216Z,1.15
2018-03-28T13:00:13.858Z,1.30
2018-03-28T13:02:40.409Z,0.80
2018-03-28T13:05:07.061Z,1.20
2018-03-28T13:07:33.646Z,1.08
2018-03-28T13:10:00.216Z,1.05
2018-03-28T13:12:26.813Z,1.13
2018-03-28T13:14:53.402Z,1.45
2018-03-28T13:17:19.941Z,1.40
2018-03-28T13:19:46.522Z,1.62
2018-03-28T13:22:13.473Z,1.93
2018-03-28T13:24:40.419Z,1.98
2018-03-28T13:27:07.386Z,2.28
2018-03-28T13:29:34.382Z,2.00
2018-03-28T13:32:00.917Z,2.80
2018-03-28T13:34:27.519Z,3.10
2018-03-28T13:36:54.132Z,3.53
2018-03-28T13:39:20.680Z,1.67
2018-03-28T13:41:47.265Z,1.80
2018-03-28T13:44:14.242Z,2.03
2018-03-28T13:46:41.175Z,1.75
2018-03-28T13:49:07.821Z,2.03
2018-03-28T13:51:34.406Z,1.62
2018-03-28T13:54:00.973Z,1.98
2018-03-28T13:56:27.565Z,2.12
2018-03-28T13:58:54.161Z,1.87
2018-03-28T14:01:20.718Z,2.10
2018-03-28T14:03:47.309Z,2.42
2018-03-28T14:06:13.888Z,2.05
2018-03-28T14:08:40.811Z,2.60
2018-03-28T14:11:07.828Z,2.65
2018-03-28T14:13:34.410Z,2.70
2018-03-28T14:16:01.030Z,2.22
2018-03-28T14:18:27.625Z,2.03
2018-03-28T14:20:54.207Z,2.00
2018-03-28T14:23:20.764Z,2.00
2018-03-28T14:25:47.387Z,2.12
2018-03-28T14:28:14.358Z,2.23
2018-03-28T14:30:40.950Z,1.70
2018-03-28T14:33:07.556Z,2.35
2018-03-28T14:35:34.158Z,1.85
2018-03-28T14:38:00.701Z,2.20
2018-03-28T14:40:27.284Z,2.83
2018-03-28T14:42:54.588Z,2.20
2018-03-28T14:45:20.461Z,2.40
2018-03-28T14:47:47.420Z,2.40
2018-03-28T14:50:14.009Z,2.53
2018-03-28T14:52:40.569Z,2.47
2018-03-28T14:55:07.142Z,2.70
2018-03-28T14:57:33.742Z,2.70
2018-03-28T15:00:00.274Z,3.15
2018-03-28T15:02:27.226Z,2.78
2018-03-28T15:04:53.804Z,3.10
2018-03-28T15:07:20.354Z,2.80
2018-03-28T15:09:46.982Z,3.80
2018-03-28T15:12:13.583Z,3.17
2018-03-28T15:14:40.137Z,2.80
2018-03-28T15:17:06.786Z,2.47
2018-03-28T15:19:33.363Z,2.33
2018-03-28T15:22:00.286Z,2.70
2018-03-28T15:24:26.872Z,2.73
2018-03-28T15:26:53.453Z,2.45
2018-03-28T15:29:20.050Z,2.65
2018-03-28T15:31:47.054Z,2.50
2018-03-28T15:34:13.634Z,2.55
2018-03-28T15:36:40.191Z,2.47
2018-03-28T15:39:06.782Z,3.33
2018-03-28T15:41:33.353Z,2.90
2018-03-28T15:43:59.911Z,2.80
2018-03-28T15:46:26.519Z,2.95
2018-03-28T15:48:53.106Z,3.00
2018-03-28T15:51:19.674Z,3.15
2018-03-28T15:53:46.658Z,3.30
2018-03-28T15:56:13.597Z,2.85
2018-03-28T15:58:40.561Z,3.35
2018-03-28T16:01:07.213Z,3.90
2018-03-28T16:03:34.168Z,3.45
2018-03-28T16:06:01.101Z,4.05
2018-03-28T16:08:27.696Z,4.53
2018-03-28T16:10:54.306Z,2.92
2018-03-28T16:13:20.893Z,3.50
2018-03-28T16:15:47.494Z,3.80
2018-03-28T16:18:14.146Z,3.87
2018-03-28T16:20:40.709Z,3.95
2018-03-28T16:23:07.286Z,3.90
2018-03-28T16:25:33.869Z,8.43
2018-03-28T16:28:00.417Z,3.87
2018-03-28T16:30:27.042Z,3.55
2018-03-28T16:32:53.614Z,5.55
2018-03-28T16:35:20.165Z,3.70
2018-03-28T16:37:46.749Z,2.85
2018-03-28T16:40:13.685Z,2.50
2018-03-28T16:42:40.238Z,2.17
2018-03-28T16:45:06.838Z,3.10
2018-03-28T16:47:33.426Z,2.33
2018-03-28T16:50:00.012Z,1.90
2018-03-28T16:52:26.599Z,2.85
2018-03-28T16:54:53.170Z,3.83
2018-03-28T16:57:19.727Z,2.42
2018-03-28T16:59:46.310Z,3.05
2018-03-28T17:02:12.893Z,4.57
2018-03-28T17:04:39.458Z,5.00
2018-03-28T17:07:06.048Z,6.93
2018-03-28T17:09:33.013Z,5.32
2018-03-28T17:11:59.546Z,4.82
2018-03-28T17:14:26.497Z,4.07
2018-03-28T17:16:53.490Z,3.37
2018-03-28T17:19:20.038Z,3.83
2018-03-28T17:21:46.618Z,3.65
2018-03-28T17:24:13.197Z,2.75
2018-03-28T17:26:39.778Z,2.80
2018-03-28T17:29:06.357Z,2.62
2018-03-28T17:31:39.794Z,3.58
2018-03-28T17:34:06.737Z,5.62
2018-03-28T17:36:33.312Z,3.87
2018-03-28T17:39:00.230Z,3.15
2018-03-28T17:41:26.809Z,2.35
2018-03-28T17:43:53.751Z,2.20
2018-03-28T17:46:20.314Z,3.40
2018-03-28T17:48:47.266Z,2.75
2018-03-28T17:51:14.222Z,2.08
2018-03-28T17:53:41.130Z,2.58
2018-03-28T17:56:07.711Z,1.75
2018-03-28T17:58:34.286Z,2.28
2018-03-28T18:01:00.825Z,1.70
2018-03-28T18:03:27.845Z,2.28
2018-03-28T18:05:54.397Z,3.12
2018-03-28T18:08:20.950Z,5.15
2018-03-28T18:10:47.534Z,3.35
2018-03-28T18:13:14.118Z,3.87
2018-03-28T18:15:40.673Z,3.12
2018-03-28T18:18:07.259Z,2.20
2018-03-28T18:20:34.223Z,2.08
2018-03-28T18:23:00.774Z,1.40
2018-03-28T18:25:27.441Z,1.35
2018-03-28T18:27:54.010Z,1.42
2018-03-28T18:30:20.625Z,1.20
2018-03-28T18:32:47.197Z,1.12
2018-03-28T18:35:13.839Z,1.20
2018-03-28T18:37:40.422Z,1.27
2018-03-28T18:40:07.025Z,1.30
2018-03-28T18:42:33.607Z,1.27
2018-03-28T18:45:00.155Z,1.05
2018-03-28T18:47:26.741Z,1.20
2018-03-28T18:49:53.682Z,1.55
2018-03-28T18:52:20.597Z,1.40
2018-03-28T18:54:47.225Z,1.58
2018-03-28T18:57:13.845Z,1.23
2018-03-28T18:59:40.776Z,1.37
2018-03-28T19:02:07.361Z,1.35
2018-03-28T19:04:34.315Z,1.80
2018-03-28T19:07:01.234Z,1.70
2018-03-28T19:09:27.810Z,1.80
2018-03-28T19:11:54.768Z,1.60
2018-03-28T19:14:21.685Z,1.45
2018-03-28T19:16:49.297Z,1.15
2018-03-28T19:19:16.274Z,1.20
2018-03-28T19:21:42.818Z,1.50
2018-03-28T19:24:09.381Z,0.80
2018-03-28T19:26:35.973Z,1.20
2018-03-28T19:29:02.523Z,1.00
2018-03-28T19:31:29.137Z,1.17
2018-03-28T19:33:55.733Z,1.25
2018-03-28T19:36:22.665Z,1.17
2018-03-28T19:38:49.245Z,1.42
2018-03-28T19:41:17.236Z,1.48
2018-03-28T19:43:43.793Z,1.40
2018-03-28T19:46:11.374Z,1.00
2018-03-28T19:48:37.942Z,0.88
2018-03-28T19:51:04.528Z,1.00
2018-03-28T19:53:32.337Z,1.23
2018-03-28T19:55:58.950Z,1.27
2018-03-28T19:58:25.870Z,1.17
2018-03-28T20:00:52.442Z,1.65
2018-03-28T20:03:19.026Z,1.20
2018-03-28T20:05:45.933Z,1.40
2018-03-28T20:08:12.508Z,1.52
2018-03-28T20:10:39.444Z,1.58
2018-03-28T20:13:06.062Z,1.50
2018-03-28T20:15:32.718Z,2.05
2018-03-28T20:17:59.303Z,1.48
2018-03-28T20:20:26.259Z,1.58
2018-03-28T20:22:52.842Z,2.40
2018-03-28T20:25:19.432Z,2.03
2018-03-28T20:27:45.961Z,1.87
2018-03-28T20:30:12.546Z,2.10
2018-03-28T20:32:39.146Z,1.92
2018-03-28T20:35:07.346Z,1.70
2018-03-28T20:37:33.937Z,2.78
2018-03-28T20:40:00.929Z,2.37
2018-03-28T20:42:27.473Z,2.50
2018-03-28T20:44:54.054Z,2.25
2018-03-28T20:47:20.639Z,2.30
2018-03-28T20:49:47.637Z,4.20
2018-03-28T20:52:14.242Z,3.37
2018-03-28T20:54:41.193Z,2.95
2018-03-28T20:57:07.726Z,3.03
2018-03-28T20:59:34.295Z,2.20
2018-03-28T21:02:01.258Z,2.67
2018-03-28T21:04:28.189Z,3.55
2018-03-28T21:06:54.754Z,2.40
2018-03-28T21:09:21.810Z,2.90
2018-03-28T21:11:48.709Z,2.65
2018-03-28T21:14:16.223Z,2.33
2018-03-28T21:16:42.796Z,2.65
2018-03-28T21:19:09.710Z,2.50
2018-03-28T21:21:36.313Z,2.83
2018-03-28T21:24:03.011Z,2.67
2018-03-28T21:26:30.095Z,2.50
2018-03-28T21:28:57.045Z,1.73
2018-03-28T21:31:23.626Z,1.67
2018-03-28T21:33:50.210Z,1.50
2018-03-28T21:36:16.774Z,2.40
2018-03-28T21:38:43.350Z,1.58
2018-03-28T21:41:10.308Z,1.65
2018-03-28T21:43:36.928Z,1.50
2018-03-28T21:46:03.602Z,1.15
2018-03-28T21:48:30.523Z,1.25
2018-03-28T21:50:57.145Z,1.25
2018-03-28T21:53:23.725Z,1.35
2018-03-28T21:55:50.279Z,1.27
2018-03-28T21:58:16.852Z,1.20
2018-03-28T22:00:43.821Z,1.27
2018-03-28T22:03:10.735Z,1.30
2018-03-28T22:05:37.322Z,1.10
2018-03-28T22:08:03.917Z,1.10
2018-03-28T22:10:30.497Z,1.20
2018-03-28T22:12:57.447Z,1.20
2018-03-28T22:15:24.024Z,1.10
2018-03-28T22:17:50.966Z,1.65
2018-03-28T22:20:17.919Z,1.10
2018-03-28T22:22:44.875Z,1.45
2018-03-28T22:25:11.822Z,1.30
2018-03-28T22:27:38.407Z,1.40
2018-03-28T22:30:04.995Z,1.40
2018-03-28T22:32:31.569Z,1.67
2018-03-28T22:34:58.144Z,1.20
2018-03-28T22:37:24.709Z,1.15
2018-03-28T22:39:51.251Z,1.10
2018-03-28T22:42:17.868Z,1.42
2018-03-28T22:44:44.820Z,1.25
2018-03-28T22:47:11.378Z,1.30
2018-03-28T22:49:38.326Z,1.37
2018-03-28T22:52:05.258Z,1.40
2018-03-28T22:54:31.817Z,1.30
2018-03-28T22:56:58.388Z,0.95
2018-03-28T22:59:25.359Z,1.20
2018-03-28T23:01:51.897Z,0.70
2018-03-28T23:04:18.850Z,1.02
2018-03-28T23:06:45.442Z,0.95
2018-03-28T23:09:11.985Z,1.02
2018-03-28T23:11:38.555Z,0.88
2018-03-28T23:14:05.146Z,1.00
2018-03-28T23:16:31.722Z,1.10
2018-03-28T23:18:58.336Z,0.88
2018-03-28T23:21:25.327Z,0.88
2018-03-28T23:23:51.881Z,0.80
2018-03-28T23:26:18.449Z,0.80
2018-03-28T23:28:45.022Z,0.73
2018-03-28T23:31:11.967Z,0.82
2018-03-28T23:33:38.578Z,0.70
2018-03-28T23:36:05.153Z,0.70
2018-03-28T23:38:31.693Z,0.70
2018-03-28T23:40:58.267Z,0.50
2018-03-28T23:43:25.201Z,0.73
2018-03-28T23:45:51.743Z,0.60
2018-03-28T23:48:18.333Z,0.60
2018-03-28T23:50:45.278Z,0.57
2018-03-28T23:53:12.222Z,0.50
2018-03-28T23:55:38.843Z,0.70
2018-03-28T23:58:05.406Z,0.40
